Time;durP1;ratioP1;P1;durP2;ratioP2;P2;SDS_P1;SDS_P2;PMS_P1;PMS_P2;Temp;Humidity;BMP_temperature;BMP_pressure;BME280_temperature;BME280_humidity;BME280_pressure;Samples;Min_cycle;Max_cycle;Signal;HPM_P1;HPM_P2
2023/11/07 00:01:32;;;;;;;13.25;4.82;;;18.20;78.00;;;;;;6038983;23;19999;-79
2023/11/07 00:04:00;;;;;;;11.55;3.90;;;18.20;78.20;;;;;;6038778;23;20054;-80
2023/11/07 00:06:25;;;;;;;17.95;4.57;;;18.20;78.50;;;;;;6038015;23;20050;-78
2023/11/07 00:08:51;;;;;;;13.38;3.88;;;18.20;78.60;;;;;;6038498;23;20426;-77
2023/11/07 00:11:17;;;;;;;13.75;3.92;;;18.20;78.80;;;;;;6038599;23;20074;-79
2023/11/07 00:13:43;;;;;;;16.17;4.18;;;18.20;79.10;;;;;;6013506;23;20090;-78
2023/11/07 00:16:10;;;;;;;12.38;3.90;;;18.30;79.50;;;;;;6038461;23;20006;-78
2023/11/07 00:18:36;;;;;;;16.55;4.03;;;18.30;79.60;;;;;;6038550;23;20434;-78
2023/11/07 00:21:02;;;;;;;13.05;3.40;;;18.30;79.80;;;;;;6038383;23;20010;-79
2023/11/07 00:23:29;;;;;;;13.23;4.05;;;18.30;80.00;;;;;;6038556;23;20026;-80
2023/11/07 00:25:54;;;;;;;16.88;3.83;;;18.30;80.20;;;;;;6038343;23;20022;-80
2023/11/07 00:28:20;;;;;;;16.02;3.40;;;18.40;80.40;;;;;;6038465;23;20011;-77
2023/11/07 00:30:47;;;;;;;15.73;3.42;;;18.40;80.50;;;;;;6038702;23;20146;-80
2023/11/07 00:33:13;;;;;;;16.10;3.50;;;18.40;80.80;;;;;;6038452;23;20030;-77
2023/11/07 00:35:41;;;;;;;15.10;4.10;;;18.40;81.00;;;;;;6038574;23;20419;-77
2023/11/07 00:38:07;;;;;;;23.35;3.80;;;18.40;81.20;;;;;;6039003;23;20019;-78
2023/11/07 00:40:32;;;;;;;13.57;3.25;;;18.40;81.30;;;;;;6039142;23;20311;-79
2023/11/07 00:42:58;;;;;;;15.65;3.42;;;18.40;81.60;;;;;;6038788;23;20008;-80
2023/11/07 00:45:24;;;;;;;18.13;4.30;;;18.40;81.70;;;;;;6013507;23;20350;-80
2023/11/07 00:47:50;;;;;;;17.05;3.72;;;18.40;81.90;;;;;;6038564;23;20418;-80
2023/11/07 00:50:16;;;;;;;42.25;4.22;;;18.40;82.00;;;;;;6038939;23;20011;-80
2023/11/07 00:52:42;;;;;;;16.25;3.75;;;18.40;82.90;;;;;;6038684;23;20283;-78
2023/11/07 00:55:08;;;;;;;16.80;4.18;;;18.40;82.40;;;;;;6038256;23;20003;-78
2023/11/07 00:57:34;;;;;;;19.83;3.95;;;18.40;82.50;;;;;;6013130;23;20441;-79
2023/11/07 01:00:00;;;;;;;13.90;3.10;;;18.40;82.70;;;;;;6013470;23;20011;-80
2023/11/07 01:02:26;;;;;;;14.90;2.90;;;18.40;83.00;;;;;;6038583;23;20495;-80
2023/11/07 01:04:53;;;;;;;14.95;3.30;;;18.40;83.10;;;;;;6038822;23;20015;-78
2023/11/07 01:07:18;;;;;;;15.88;3.30;;;18.40;83.30;;;;;;6038553;23;20424;-79
2023/11/07 01:09:44;;;;;;;15.40;3.60;;;18.40;83.40;;;;;;6037176;23;20107;-78
2023/11/07 01:12:10;;;;;;;15.40;3.47;;;18.40;83.80;;;;;;6039208;23;20007;-79
2023/11/07 01:14:36;;;;;;;15.25;3.42;;;18.40;83.80;;;;;;6040387;23;20093;-79
2023/11/07 01:17:02;;;;;;;11.80;3.17;;;18.40;84.00;;;;;;6043060;23;20007;-76
2023/11/07 01:19:28;;;;;;;13.50;3.40;;;18.30;84.20;;;;;;6040853;23;20094;-80
2023/11/07 01:21:54;;;;;;;17.60;3.55;;;18.30;84.30;;;;;;6040509;23;20027;-79
2023/11/07 01:24:19;;;;;;;15.05;3.38;;;18.30;84.50;;;;;;6039610;23;20023;-81
2023/11/07 01:26:45;;;;;;;18.35;4.95;;;18.30;84.80;;;;;;6039798;23;20006;-80
2023/11/07 01:29:12;;;;;;;18.45;3.80;;;18.30;84.90;;;;;;6040456;23;20063;-79
2023/11/07 01:31:38;;;;;;;13.27;3.40;;;18.30;85.40;;;;;;6040440;23;20083;-78
2023/11/07 01:34:04;;;;;;;18.38;4.03;;;18.20;85.80;;;;;;6040804;23;20043;-78
2023/11/07 01:36:30;;;;;;;17.02;3.25;;;18.20;86.00;;;;;;6040386;23;20025;-77
2023/11/07 01:38:56;;;;;;;14.02;3.70;;;18.10;86.20;;;;;;6040504;23;20015;-78
2023/11/07 01:41:21;;;;;;;14.88;3.58;;;18.10;86.80;;;;;;6040614;23;20074;-79
2023/11/07 01:43:47;;;;;;;11.73;3.42;;;18.10;87.10;;;;;;6040382;23;20003;-78
2023/11/07 01:46:14;;;;;;;14.38;3.63;;;18.10;87.20;;;;;;6014763;23;20046;-79
2023/11/07 01:48:40;;;;;;;15.50;3.70;;;18.10;87.30;;;;;;6039671;23;20485;-78
2023/11/07 01:51:06;;;;;;;16.83;3.90;;;18.10;87.60;;;;;;6039917;23;20003;-78
2023/11/07 01:53:33;;;;;;;18.23;4.22;;;18.10;87.70;;;;;;6039999;23;20375;-78
2023/11/07 01:55:59;;;;;;;17.35;3.67;;;18.10;87.90;;;;;;6039921;23;20004;-79
2023/11/07 01:58:26;;;;;;;15.52;3.88;;;18.10;88.10;;;;;;6039626;23;20011;-79
2023/11/07 02:00:55;;;;;;;12.50;4.00;;;18.10;88.20;;;;;;6014480;23;20510;-79
2023/11/07 02:03:28;;;;;;;13.32;3.15;;;18.00;88.30;;;;;;6040012;23;20427;-78
2023/11/07 02:05:53;;;;;;;13.52;3.42;;;18.00;88.60;;;;;;6039903;23;20431;-78
2023/11/07 02:08:25;;;;;;;15.10;3.13;;;18.00;88.80;;;;;;6040005;23;20011;-79
2023/11/07 02:10:51;;;;;;;17.85;2.90;;;18.00;89.00;;;;;;6039254;23;20338;-79
2023/11/07 02:13:17;;;;;;;18.65;3.47;;;18.00;89.10;;;;;;6039687;23;20004;-79
2023/11/07 02:18:25;;;;;;;15.90;3.40;;;17.90;89.40;;;;;;5110652;27;20903;-79
2023/11/07 02:20:51;;;;;;;11.40;3.20;;;17.90;89.60;;;;;;5110325;28;20038;-78
2023/11/07 02:23:30;;;;;;;13.75;3.13;;;17.90;89.70;;;;;;5110096;28;20095;-78
2023/11/07 02:25:56;;;;;;;14.32;3.22;;;17.90;90.20;;;;;;5110226;28;20034;-76
2023/11/07 02:28:22;;;;;;;13.70;2.67;;;17.90;90.10;;;;;;5107896;28;20017;-78
2023/11/07 02:30:48;;;;;;;16.15;3.92;;;17.90;90.30;;;;;;5110229;28;20030;-78
2023/11/07 02:33:14;;;;;;;18.65;4.43;;;17.80;90.30;;;;;;5109824;28;20024;-77
2023/11/07 02:35:41;;;;;;;19.08;4.18;;;17.80;90.50;;;;;;5110432;28;20123;-79
2023/11/07 02:38:07;;;;;;;16.70;3.95;;;17.80;90.50;;;;;;5110616;28;20032;-80
2023/11/07 02:40:34;;;;;;;17.73;4.18;;;17.70;90.50;;;;;;5109398;28;20052;-79
2023/11/07 02:43:06;;;;;;;13.88;4.05;;;17.70;90.60;;;;;;5111003;28;20023;-79
2023/11/07 02:45:35;;;;;;;16.10;3.92;;;17.70;90.60;;;;;;5108589;28;20069;-78
2023/11/07 02:48:02;;;;;;;15.80;4.13;;;17.60;90.60;;;;;;5108636;28;20114;-78
2023/11/07 02:50:27;;;;;;;13.35;4.38;;;17.60;90.70;;;;;;5110360;28;20024;-79
2023/11/07 02:52:53;;;;;;;16.48;4.50;;;17.60;90.80;;;;;;5110838;28;20085;-78
2023/11/07 02:55:19;;;;;;;15.52;3.85;;;17.60;90.90;;;;;;5110290;28;20051;-79
2023/11/07 02:57:45;;;;;;;16.55;4.45;;;17.60;91.00;;;;;;5110136;28;20437;-78
2023/11/07 03:00:12;;;;;;;12.75;3.88;;;17.50;91.10;;;;;;5108462;28;20372;-78
2023/11/07 03:02:39;;;;;;;11.38;3.85;;;17.50;91.20;;;;;;5110101;28;20023;-79
2023/11/07 03:05:06;;;;;;;12.68;4.32;;;17.50;91.40;;;;;;5109517;28;20451;-77
2023/11/07 03:07:33;;;;;;;14.00;3.67;;;17.40;91.40;;;;;;5109543;28;20463;-78
2023/11/07 03:10:00;;;;;;;16.02;4.47;;;17.50;91.50;;;;;;5109252;28;20103;-77
2023/11/07 03:12:29;;;;;;;13.65;4.13;;;17.40;91.60;;;;;;5109249;28;20522;-77
2023/11/07 03:14:56;;;;;;;14.88;4.38;;;17.40;91.50;;;;;;5109159;28;20510;-78
2023/11/07 03:17:23;;;;;;;13.27;3.97;;;17.30;91.70;;;;;;5108441;28;20058;-79
2023/11/07 03:19:51;;;;;;;12.50;4.30;;;17.30;91.80;;;;;;5108739;28;20024;-79
2023/11/07 03:22:19;;;;;;;12.70;4.25;;;17.20;91.80;;;;;;5108581;28;20487;-78
2023/11/07 03:24:46;;;;;;;16.77;4.25;;;17.20;91.90;;;;;;5109905;28;20016;-79
2023/11/07 03:27:11;;;;;;;14.95;4.40;;;17.20;91.90;;;;;;5109020;28;20228;-79
2023/11/07 03:29:37;;;;;;;15.50;4.38;;;17.20;91.80;;;;;;5096287;28;20035;-79
2023/11/07 03:32:04;;;;;;;14.05;3.65;;;17.20;91.90;;;;;;5096183;28;20020;-78
2023/11/07 03:34:30;;;;;;;13.40;4.25;;;17.10;92.00;;;;;;5095233;28;20103;-78
2023/11/07 03:36:56;;;;;;;15.75;4.13;;;17.10;92.10;;;;;;5095004;28;20116;-78
2023/11/07 03:39:21;;;;;;;16.63;4.45;;;17.10;92.10;;;;;;5095020;28;20055;-77
2023/11/07 03:41:47;;;;;;;17.45;4.22;;;17.00;92.10;;;;;;5095318;28;20436;-77
2023/11/07 03:44:13;;;;;;;14.45;4.57;;;17.00;92.10;;;;;;5095139;28;20541;-79
2023/11/07 03:46:39;;;;;;;16.10;4.70;;;17.00;92.00;;;;;;5095121;28;20057;-79
2023/11/07 03:49:05;;;;;;;12.00;3.78;;;16.90;92.00;;;;;;5094939;28;20460;-79
2023/11/07 03:51:31;;;;;;;14.77;4.15;;;16.90;92.00;;;;;;5094808;28;20023;-80
2023/11/07 03:53:57;;;;;;;13.02;4.07;;;16.90;91.80;;;;;;5094779;28;20024;-78
2023/11/07 03:56:22;;;;;;;14.82;4.53;;;16.90;91.90;;;;;;5094638;28;20036;-77
2023/11/07 03:58:48;;;;;;;14.35;3.60;;;16.80;91.70;;;;;;5094916;28;20031;-81
2023/11/07 04:01:14;;;;;;;11.98;4.18;;;16.80;91.60;;;;;;5095012;28;20047;-78
2023/11/07 04:03:39;;;;;;;10.15;4.05;;;16.80;91.60;;;;;;5095936;28;20025;-76
2023/11/07 04:06:05;;;;;;;13.77;6.30;;;16.90;91.60;;;;;;5095711;28;20055;-79
2023/11/07 04:08:32;;;;;;;13.65;5.40;;;16.80;91.50;;;;;;5095571;28;20056;-79
2023/11/07 04:10:57;;;;;;;14.68;5.57;;;16.80;91.50;;;;;;5096028;28;20483;-79
2023/11/07 04:13:23;;;;;;;12.77;5.25;;;16.80;91.40;;;;;;5096149;28;20174;-79
2023/11/07 04:15:49;;;;;;;13.00;4.88;;;16.90;91.50;;;;;;5094508;28;20024;-79
2023/11/07 04:18:14;;;;;;;15.88;5.57;;;16.90;91.40;;;;;;5095034;28;20211;-79
2023/11/07 04:20:42;;;;;;;13.32;4.43;;;16.90;91.40;;;;;;5095104;28;20486;-79
2023/11/07 04:23:09;;;;;;;15.32;4.28;;;16.80;91.50;;;;;;5094924;28;20483;-79
2023/11/07 04:25:35;;;;;;;15.15;4.40;;;16.80;91.40;;;;;;5094886;28;20047;-79
2023/11/07 04:28:02;;;;;;;12.38;4.85;;;16.70;91.50;;;;;;5094321;28;20115;-79
2023/11/07 04:30:28;;;;;;;12.02;4.25;;;16.70;91.50;;;;;;5094644;28;20078;-80
2023/11/07 04:32:53;;;;;;;12.27;4.22;;;16.70;91.50;;;;;;5094131;28;20051;-79
2023/11/07 04:35:19;;;;;;;14.52;4.90;;;16.80;91.60;;;;;;5094144;28;20020;-78
2023/11/07 04:37:45;;;;;;;15.45;4.57;;;16.80;91.50;;;;;;5094099;28;20108;-79
2023/11/07 04:40:11;;;;;;;18.65;5.28;;;16.90;91.40;;;;;;5092890;28;20030;-78
2023/11/07 04:42:36;;;;;;;14.95;5.40;;;16.90;91.40;;;;;;5094181;28;20024;-78
2023/11/07 04:45:03;;;;;;;18.83;5.18;;;16.90;91.40;;;;;;5093912;28;20466;-78
2023/11/07 04:47:29;;;;;;;17.50;4.28;;;16.90;91.40;;;;;;5092493;28;20483;-80
2023/11/07 04:49:59;;;;;;;10.73;3.92;;;16.90;91.40;;;;;;5094105;28;20024;-80
2023/11/07 04:52:24;;;;;;;10.38;3.78;;;16.90;91.30;;;;;;5093950;28;20031;-78
2023/11/07 04:54:50;;;;;;;14.95;4.30;;;16.90;91.30;;;;;;5093846;28;20024;-78
2023/11/07 04:57:16;;;;;;;12.75;4.45;;;16.90;91.30;;;;;;5093335;28;20032;-78
2023/11/07 04:59:42;;;;;;;11.25;4.45;;;16.90;91.40;;;;;;5093511;28;20023;-78
2023/11/07 05:02:08;;;;;;;14.70;4.50;;;17.00;91.40;;;;;;5093691;28;20373;-78
2023/11/07 05:04:34;;;;;;;11.38;3.90;;;17.00;91.40;;;;;;5092374;28;20384;-77
2023/11/07 05:07:01;;;;;;;14.77;4.28;;;17.00;91.40;;;;;;5093143;28;20118;-78
2023/11/07 05:09:27;;;;;;;10.63;4.30;;;17.00;91.40;;;;;;5093609;28;20031;-79
2023/11/07 05:11:54;;;;;;;14.50;4.50;;;17.00;91.30;;;;;;5093432;28;20487;-79
2023/11/07 05:14:20;;;;;;;13.95;4.20;;;17.10;91.40;;;;;;5093521;28;20020;-79
2023/11/07 05:16:46;;;;;;;18.60;6.43;;;17.10;91.50;;;;;;5093111;28;20120;-79
2023/11/07 05:19:12;;;;;;;14.23;4.97;;;17.10;91.50;;;;;;5093781;28;20031;-78
2023/11/07 05:21:38;;;;;;;16.27;4.40;;;17.10;91.60;;;;;;5096251;28;20024;-78
2023/11/07 05:24:04;;;;;;;14.70;5.07;;;17.10;91.60;;;;;;5095885;28;20504;-79
2023/11/07 05:26:31;;;;;;;12.27;5.35;;;17.10;91.60;;;;;;5093406;28;20031;-78
2023/11/07 05:28:56;;;;;;;14.77;5.05;;;17.10;91.80;;;;;;5093178;28;20016;-78
2023/11/07 05:31:22;;;;;;;16.35;4.68;;;17.10;91.80;;;;;;5093391;28;20024;-79
2023/11/07 05:33:49;;;;;;;12.30;4.60;;;17.20;91.80;;;;;;5092021;28;20052;-78
2023/11/07 05:36:17;;;;;;;12.23;4.22;;;17.20;91.90;;;;;;5093280;28;20024;-79
2023/11/07 05:38:44;;;;;;;15.13;4.85;;;17.20;91.90;;;;;;5092587;28;20031;-79
2023/11/07 05:41:10;;;;;;;12.68;4.90;;;17.20;91.90;;;;;;5094003;28;20053;-80
2023/11/07 05:43:37;;;;;;;18.38;5.03;;;17.10;91.90;;;;;;5093212;28;20024;-79
2023/11/07 05:46:03;;;;;;;15.60;4.85;;;17.20;92.10;;;;;;5093414;28;20035;-79
2023/11/07 05:48:28;;;;;;;14.65;4.35;;;17.10;92.00;;;;;;5092965;28;20157;-81
2023/11/07 05:50:54;;;;;;;14.57;4.43;;;17.10;92.00;;;;;;5091122;28;20484;-79
2023/11/07 05:53:20;;;;;;;11.63;4.43;;;17.10;92.10;;;;;;5091501;28;20028;-80
2023/11/07 05:55:46;;;;;;;11.32;4.47;;;17.10;92.10;;;;;;5093097;28;20024;-79
2023/11/07 05:58:11;;;;;;;18.08;6.15;;;17.00;92.10;;;;;;5092632;28;20387;-79
2023/11/07 06:00:39;;;;;;;13.52;5.30;;;17.00;92.20;;;;;;5092148;28;20107;-80
2023/11/07 06:03:05;;;;;;;16.65;5.05;;;17.00;92.30;;;;;;5092405;28;20332;-78
2023/11/07 06:05:30;;;;;;;16.98;5.82;;;17.00;92.50;;;;;;5092979;28;20399;-79
2023/11/07 06:07:58;;;;;;;21.38;6.88;;;17.00;92.50;;;;;;5093101;28;20105;-78
2023/11/07 06:10:24;;;;;;;12.43;5.68;;;17.00;92.60;;;;;;5094006;28;20046;-80
2023/11/07 06:12:50;;;;;;;13.88;5.32;;;17.00;92.60;;;;;;5092538;28;20032;-79
2023/11/07 06:15:16;;;;;;;16.52;5.85;;;17.00;92.60;;;;;;5074190;28;20031;-79
2023/11/07 06:17:43;;;;;;;13.40;5.22;;;17.00;92.70;;;;;;5092036;28;20135;-80
2023/11/07 06:20:09;;;;;;;12.70;5.00;;;17.00;92.70;;;;;;5092414;28;20024;-82
2023/11/07 06:22:35;;;;;;;14.45;5.95;;;17.00;92.70;;;;;;5092004;28;20073;-81
2023/11/07 06:25:01;;;;;;;12.75;5.45;;;17.00;92.80;;;;;;5092321;28;20099;-81
2023/11/07 06:27:27;;;;;;;19.40;6.07;;;17.00;92.70;;;;;;5092381;28;20020;-79
2023/11/07 06:29:53;;;;;;;14.40;5.45;;;17.10;92.90;;;;;;5091929;28;20388;-79
2023/11/07 06:32:19;;;;;;;16.05;6.00;;;17.00;92.80;;;;;;5092520;28;20024;-78
2023/11/07 06:34:44;;;;;;;14.05;5.15;;;17.00;92.90;;;;;;5092464;28;20028;-76
2023/11/07 06:37:10;;;;;;;13.68;5.20;;;17.10;92.90;;;;;;5092093;28;20055;-79
2023/11/07 06:39:36;;;;;;;14.85;5.43;;;17.10;92.90;;;;;;5073728;28;20024;-81
2023/11/07 06:42:03;;;;;;;11.88;5.30;;;17.10;92.90;;;;;;5092223;28;20028;-76
2023/11/07 06:44:28;;;;;;;14.07;5.78;;;17.10;92.90;;;;;;5091821;28;20035;-75
2023/11/07 06:46:55;;;;;;;17.05;5.25;;;17.10;93.00;;;;;;5092005;28;20020;-76
2023/11/07 06:49:21;;;;;;;19.33;5.38;;;17.20;93.10;;;;;;5091676;28;20066;-75
2023/11/07 06:51:47;;;;;;;15.40;5.65;;;17.20;93.10;;;;;;5092055;28;20024;-75
2023/11/07 06:54:13;;;;;;;15.50;5.43;;;17.20;93.10;;;;;;5092051;28;20020;-76
2023/11/07 06:56:38;;;;;;;13.48;5.15;;;17.30;93.10;;;;;;5092029;28;20029;-75
2023/11/07 06:59:04;;;;;;;14.38;5.90;;;17.30;93.20;;;;;;5091413;28;20031;-74
2023/11/07 07:01:32;;;;;;;13.65;5.60;;;17.30;93.20;;;;;;5091384;28;20020;-74
2023/11/07 07:03:58;;;;;;;17.88;5.85;;;17.30;93.20;;;;;;5093388;28;20020;-74
2023/11/07 07:06:24;;;;;;;18.13;6.57;;;17.30;93.50;;;;;;5095578;28;20068;-74
2023/11/07 07:08:51;;;;;;;15.50;7.10;;;17.40;93.30;;;;;;5095000;28;20012;-75
2023/11/07 07:11:20;;;;;;;19.75;5.85;;;17.40;93.30;;;;;;5095338;28;20052;-75
2023/11/07 07:13:46;;;;;;;17.33;6.60;;;17.50;93.30;;;;;;5095221;28;20081;-75
2023/11/07 07:16:16;;;;;;;19.13;6.40;;;17.50;93.20;;;;;;5095297;28;20032;-75
2023/11/07 07:18:42;;;;;;;17.80;5.32;;;17.50;93.20;;;;;;5094869;28;20492;-72
2023/11/07 07:21:09;;;;;;;21.48;6.70;;;17.60;93.20;;;;;;5095128;28;20035;-75
2023/11/07 07:23:36;;;;;;;17.10;5.97;;;17.60;93.10;;;;;;5094781;28;20016;-76
2023/11/07 07:26:08;;;;;;;16.77;6.05;;;17.60;93.10;;;;;;5095190;28;20020;-74
2023/11/07 07:28:38;;;;;;;17.73;5.55;;;17.70;93.10;;;;;;5074892;28;20055;-74
2023/11/07 07:31:06;;;;;;;17.95;5.90;;;17.70;93.00;;;;;;5075191;28;20078;-74
2023/11/07 07:33:37;;;;;;;17.63;6.38;;;17.70;93.10;;;;;;5056700;28;20449;-75
2023/11/07 07:36:04;;;;;;;17.60;5.95;;;17.70;92.90;;;;;;5074690;28;20031;-75
2023/11/07 07:38:35;;;;;;;19.70;5.72;;;17.70;93.10;;;;;;5074353;28;20036;-74
2023/11/07 07:41:01;;;;;;;16.05;5.88;;;17.70;93.10;;;;;;5074719;28;20330;-75
2023/11/07 07:43:27;;;;;;;18.63;6.18;;;17.70;93.20;;;;;;5074800;28;20086;-75
2023/11/07 07:45:55;;;;;;;17.90;6.28;;;17.70;93.30;;;;;;5074442;28;20016;-76
2023/11/07 07:48:22;;;;;;;15.40;6.00;;;17.70;93.40;;;;;;5074594;28;20460;-76
2023/11/07 07:50:51;;;;;;;15.18;5.78;;;17.70;93.40;;;;;;5074555;28;20016;-75
2023/11/07 07:53:19;;;;;;;19.98;6.30;;;17.70;93.40;;;;;;5056589;28;20028;-75
2023/11/07 07:55:44;;;;;;;13.38;5.68;;;17.70;93.70;;;;;;5074254;28;20017;-75
2023/11/07 07:58:11;;;;;;;15.95;5.57;;;17.70;93.40;;;;;;5074163;28;20108;-75
2023/11/07 08:00:37;;;;;;;15.88;5.72;;;17.70;93.40;;;;;;5074473;28;20028;-74
2023/11/07 08:03:08;;;;;;;17.92;5.65;;;17.70;93.30;;;;;;5074641;28;20024;-74
2023/11/07 08:05:38;;;;;;;18.45;6.10;;;17.80;93.30;;;;;;5074114;28;20101;-74
2023/11/07 08:08:08;;;;;;;15.80;5.47;;;17.80;93.30;;;;;;5073943;28;20020;-75
2023/11/07 08:10:33;;;;;;;16.20;5.93;;;17.80;93.30;;;;;;5073875;28;20055;-75
2023/11/07 08:12:59;;;;;;;19.52;6.45;;;17.80;93.40;;;;;;5073946;28;20495;-75
2023/11/07 08:15:26;;;;;;;21.08;6.30;;;17.80;93.40;;;;;;5073532;28;20029;-75
2023/11/07 08:17:54;;;;;;;15.05;5.88;;;17.80;93.40;;;;;;5073657;28;20231;-75
2023/11/07 08:20:20;;;;;;;21.42;6.70;;;17.80;93.40;;;;;;5073699;28;20376;-76
2023/11/07 08:22:47;;;;;;;18.23;6.20;;;17.90;93.40;;;;;;5074051;28;20085;-75
2023/11/07 08:25:14;;;;;;;16.48;6.47;;;17.90;93.50;;;;;;5073888;28;20047;-77
2023/11/07 08:27:44;;;;;;;19.42;6.63;;;17.90;93.60;;;;;;5074038;28;20472;-75
2023/11/07 08:30:15;;;;;;;19.45;6.75;;;17.90;93.60;;;;;;5073337;28;20021;-75
2023/11/07 08:32:44;;;;;;;15.98;5.95;;;17.90;93.60;;;;;;5073560;28;20380;-75
2023/11/07 08:35:18;;;;;;;20.98;6.10;;;17.90;93.60;;;;;;5073165;28;20472;-75
2023/11/07 08:37:47;;;;;;;18.15;6.38;;;17.90;93.60;;;;;;5073452;28;20032;-74
2023/11/07 08:40:17;;;;;;;24.80;6.78;;;18.00;93.60;;;;;;5073438;28;20051;-75
2023/11/07 08:42:48;;;;;;;18.35;6.32;;;18.00;93.40;;;;;;5073544;28;20384;-75
2023/11/07 08:45:18;;;;;;;19.55;7.18;;;18.00;93.60;;;;;;5054953;28;20387;-76
2023/11/07 08:47:47;;;;;;;20.27;7.13;;;17.90;93.60;;;;;;5073051;28;20040;-76
2023/11/07 08:50:13;;;;;;;17.40;6.30;;;17.80;93.80;;;;;;5073148;28;20044;-74
2023/11/07 08:52:42;;;;;;;20.30;6.63;;;17.70;93.90;;;;;;5073114;28;20043;-75
2023/11/07 08:55:09;;;;;;;21.05;6.97;;;17.60;94.00;;;;;;5072941;28;20484;-76
2023/11/07 08:57:40;;;;;;;21.08;6.50;;;17.60;94.10;;;;;;5073195;28;20033;-74
2023/11/07 09:00:08;;;;;;;17.38;5.53;;;17.60;93.90;;;;;;5072843;28;20051;-75
2023/11/07 09:02:38;;;;;;;21.67;7.07;;;17.70;93.90;;;;;;5073082;28;20027;-75
2023/11/07 09:05:07;;;;;;;22.00;6.57;;;17.70;93.90;;;;;;5072989;28;20020;-75
2023/11/07 09:07:34;;;;;;;15.82;6.72;;;17.70;93.80;;;;;;5073130;28;20024;-76
2023/11/07 09:10:01;;;;;;;19.63;6.97;;;17.80;93.90;;;;;;5073108;28;20073;-74
2023/11/07 09:12:27;;;;;;;17.30;5.80;;;17.90;93.80;;;;;;5072884;28;20036;-75
2023/11/07 09:14:52;;;;;;;19.13;6.75;;;18.00;93.70;;;;;;5073223;28;20096;-75
2023/11/07 09:17:18;;;;;;;20.55;6.53;;;18.00;93.60;;;;;;5072536;28;20479;-74
2023/11/07 09:19:44;;;;;;;24.33;5.97;;;18.10;93.60;;;;;;5072945;28;20028;-75
2023/11/07 09:22:10;;;;;;;21.17;6.20;;;18.10;93.60;;;;;;5072570;28;20036;-75
2023/11/07 09:24:36;;;;;;;13.88;5.57;;;18.10;93.60;;;;;;5072906;28;20052;-75
2023/11/07 09:27:05;;;;;;;18.63;6.43;;;18.00;93.70;;;;;;5072114;28;20515;-76
2023/11/07 09:29:32;;;;;;;17.85;6.07;;;17.90;93.80;;;;;;5072757;28;20090;-75
2023/11/07 09:31:58;;;;;;;19.30;6.22;;;17.90;93.80;;;;;;5072612;28;20017;-76
2023/11/07 09:34:24;;;;;;;25.75;6.05;;;17.70;93.90;;;;;;5073032;28;20025;-76
2023/11/07 09:36:50;;;;;;;20.88;6.50;;;17.70;94.00;;;;;;5072469;28;20087;-76
2023/11/07 09:39:16;;;;;;;21.60;6.97;;;17.70;94.30;;;;;;5072266;28;20059;-76
2023/11/07 09:41:43;;;;;;;16.63;6.53;;;17.60;94.30;;;;;;5072784;28;20033;-75
2023/11/07 09:44:13;;;;;;;18.38;6.68;;;17.60;94.40;;;;;;5072471;28;20025;-74
2023/11/07 09:46:42;;;;;;;21.92;6.85;;;17.50;94.40;;;;;;5072119;28;20219;-75
2023/11/07 09:49:08;;;;;;;19.00;6.28;;;17.60;94.80;;;;;;5072571;28;20063;-77
2023/11/07 09:51:38;;;;;;;20.67;6.80;;;17.60;94.50;;;;;;5054001;28;20491;-76
2023/11/07 09:54:06;;;;;;;25.10;7.60;;;17.60;94.50;;;;;;5072236;28;20032;-76
2023/11/07 09:56:37;;;;;;;21.27;6.80;;;17.60;94.50;;;;;;5072320;28;20039;-76
2023/11/07 09:59:15;;;;;;;21.67;6.80;;;17.70;94.60;;;;;;5054276;28;20028;-76
2023/11/07 10:01:41;;;;;;;25.67;7.45;;;17.70;94.60;;;;;;5072245;28;20036;-75
2023/11/07 10:04:08;;;;;;;18.77;6.78;;;17.70;94.80;;;;;;5072585;28;20025;-75
2023/11/07 10:06:34;;;;;;;21.48;7.10;;;17.70;94.60;;;;;;5072322;28;20536;-76
2023/11/07 10:08:59;;;;;;;17.50;6.65;;;17.80;94.60;;;;;;5072569;28;20021;-74
2023/11/07 10:11:25;;;;;;;20.08;7.15;;;17.90;94.50;;;;;;5072176;28;20033;-76
2023/11/07 10:14:01;;;;;;;18.52;6.15;;;18.00;94.40;;;;;;5072268;28;20146;-76
2023/11/07 10:16:41;;;;;;;25.30;7.65;;;18.00;94.30;;;;;;5072136;28;20044;-76
2023/11/07 10:19:12;;;;;;;21.35;7.03;;;18.00;94.40;;;;;;5072761;28;20065;-76
2023/11/07 10:21:38;;;;;;;18.55;6.68;;;18.00;94.40;;;;;;5072652;28;20025;-76
2023/11/07 10:24:04;;;;;;;18.30;7.47;;;18.00;94.40;;;;;;5072489;28;20016;-76
2023/11/07 10:26:31;;;;;;;17.55;7.30;;;18.00;94.40;;;;;;5072750;28;20024;-75
2023/11/07 10:29:13;;;;;;;20.88;6.95;;;17.90;94.40;;;;;;5072671;28;20032;-76
2023/11/07 10:31:43;;;;;;;21.02;7.15;;;18.00;94.60;;;;;;5072340;28;20032;-76
2023/11/07 10:34:17;;;;;;;20.15;7.47;;;17.90;94.50;;;;;;5072437;28;20024;-75
2023/11/07 10:36:44;;;;;;;16.98;6.47;;;18.00;94.60;;;;;;5073043;28;20024;-76
2023/11/07 10:39:17;;;;;;;18.30;7.05;;;17.90;94.60;;;;;;5074690;28;20021;-77
2023/11/07 10:41:47;;;;;;;17.58;6.80;;;17.90;94.60;;;;;;5076602;28;20044;-74
2023/11/07 10:44:30;;;;;;;20.98;7.05;;;17.90;94.70;;;;;;5076305;28;20060;-75
2023/11/07 10:47:00;;;;;;;23.77;6.95;;;17.90;94.70;;;;;;5076087;28;20036;-77
2023/11/07 10:49:26;;;;;;;20.35;6.65;;;17.90;94.60;;;;;;5076073;28;20020;-76
2023/11/07 10:51:55;;;;;;;19.55;6.97;;;17.90;94.60;;;;;;5075966;28;20028;-75
2023/11/07 10:54:21;;;;;;;26.65;8.05;;;17.90;94.50;;;;;;5075808;28;20036;-76
2023/11/07 10:56:48;;;;;;;25.90;7.90;;;17.90;94.50;;;;;;5075815;28;20377;-76
2023/11/07 10:59:22;;;;;;;21.33;7.03;;;18.00;94.60;;;;;;5076226;28;20025;-76
2023/11/07 11:01:50;;;;;;;;;;;18.00;94.60;;;;;;5076659;28;20069;-76
2023/11/07 11:04:26;;;;;;;21.35;7.30;;;18.00;94.40;;;;;;5075817;28;19910;-76
2023/11/07 11:07:00;;;;;;;19.58;6.88;;;18.00;94.40;;;;;;5057163;28;20033;-76
2023/11/07 11:09:27;;;;;;;19.08;6.45;;;17.90;94.40;;;;;;5075746;28;20040;-76
2023/11/07 11:11:58;;;;;;;16.55;7.05;;;17.90;94.50;;;;;;5075804;28;20029;-75
2023/11/07 11:14:25;;;;;;;21.48;8.00;;;17.90;94.50;;;;;;5075830;28;20457;-75
2023/11/07 15:23:00;;;;;;;18.98;4.57;;;17.90;91.50;;;;;;5066788;28;20135;-76
2023/11/07 15:25:30;;;;;;;20.15;4.72;;;17.90;91.50;;;;;;5052117;28;20128;-75
2023/11/07 15:27:57;;;;;;;20.35;4.88;;;17.80;91.80;;;;;;5055334;28;20045;-76
2023/11/07 15:30:24;;;;;;;25.10;5.15;;;17.80;91.90;;;;;;5055808;28;20377;-76
2023/11/07 15:32:50;;;;;;;14.85;3.53;;;17.80;91.90;;;;;;5055666;28;20033;-76
2023/11/07 15:35:17;;;;;;;24.10;5.18;;;17.80;91.90;;;;;;5055584;28;20033;-77
2023/11/07 15:37:43;;;;;;;20.05;4.57;;;17.80;91.90;;;;;;5055455;28;20041;-76
2023/11/07 15:40:11;;;;;;;16.20;4.68;;;17.80;92.00;;;;;;5055474;28;20064;-75
2023/11/07 15:42:38;;;;;;;11.23;4.20;;;17.80;92.00;;;;;;5055257;28;20106;-76
2023/11/07 15:45:04;;;;;;;13.45;3.92;;;17.70;92.00;;;;;;5054812;28;20037;-75
2023/11/07 15:47:33;;;;;;;11.60;4.57;;;17.70;92.00;;;;;;5055285;28;20128;-75
2023/11/07 15:49:59;;;;;;;11.45;4.00;;;17.70;92.10;;;;;;5054794;28;20037;-76
2023/11/07 15:52:25;;;;;;;14.07;4.28;;;17.70;92.10;;;;;;5054689;28;20061;-76
2023/11/07 15:54:51;;;;;;;12.25;4.82;;;17.60;92.10;;;;;;5053527;28;20040;-76
2023/11/07 15:57:16;;;;;;;11.93;4.10;;;17.60;92.20;;;;;;5055216;28;20037;-74
2023/11/07 15:59:42;;;;;;;12.90;3.88;;;17.60;92.20;;;;;;5055321;28;20151;-76
2023/11/07 16:02:09;;;;;;;10.63;4.40;;;17.60;92.30;;;;;;5054613;28;20029;-76
2023/11/07 16:04:35;;;;;;;13.32;4.93;;;17.60;92.20;;;;;;5053572;28;20037;-76
2023/11/07 16:07:01;;;;;;;11.88;4.35;;;17.50;92.30;;;;;;5054564;28;20037;-76
2023/11/07 16:09:26;;;;;;;11.18;4.22;;;17.50;92.30;;;;;;5055126;28;20044;-75
2023/11/07 16:11:52;;;;;;;17.33;4.78;;;17.60;92.30;;;;;;5054813;28;20388;-76
2023/11/07 16:14:18;;;;;;;12.82;4.70;;;17.60;92.40;;;;;;5054728;28;20041;-74
2023/11/07 16:16:44;;;;;;;16.35;4.50;;;17.50;92.40;;;;;;5055090;28;20033;-76
2023/11/07 16:19:10;;;;;;;11.75;5.28;;;17.50;92.50;;;;;;5055793;28;20029;-76
2023/11/07 16:21:36;;;;;;;12.02;5.18;;;17.50;92.50;;;;;;5057718;28;20469;-76
2023/11/07 16:24:02;;;;;;;16.80;4.80;;;17.50;92.60;;;;;;5075908;28;20060;-76
2023/11/07 16:26:38;;;;;;;16.98;5.07;;;17.40;92.60;;;;;;5075014;28;20044;-76
2023/11/07 16:29:04;;;;;;;14.30;4.72;;;17.40;92.60;;;;;;5055886;28;20057;-76
2023/11/07 16:31:30;;;;;;;14.60;5.30;;;17.40;92.70;;;;;;5054835;28;20425;-77
2023/11/07 16:33:59;;;;;;;12.98;5.15;;;17.40;92.70;;;;;;5054732;28;20116;-77
2023/11/07 16:36:25;;;;;;;11.55;5.63;;;17.40;92.70;;;;;;5055039;28;20029;-76
2023/11/07 16:38:51;;;;;;;18.80;6.88;;;17.30;92.70;;;;;;5054036;28;20447;-76
2023/11/07 16:41:17;;;;;;;15.85;6.20;;;17.30;92.90;;;;;;5054185;28;20036;-76
2023/11/07 16:43:43;;;;;;;14.13;6.97;;;17.30;93.00;;;;;;5053846;28;20412;-76
2023/11/07 16:46:18;;;;;;;13.73;7.00;;;17.30;93.10;;;;;;5053661;28;20078;-77